usa flag      colorado flag

Language: 

TigerDenWX History Data from Weather Underground


TigerDenWX Weather Station Historical Data
 
Daily Summary for April 18, 2019 Units:  English    Metric   Both
Daily Weekly Monthly Yearly Custom
  Current: High: Low: Average:
Temperature: 45.8 °F 45.8 °F 36.0 °F 40.3 °F
Dew Point: 35.1 °F 37.1 °F 32.7 °F 35.3 °F
Humidity: 66% 89% 66% 83%
Wind Speed: 3.0mph 12.0mph 0.0mph 1mph
Wind Gust: 7.0mph 14.0mph - -
WindENE - - ENE
Pressure: 30.09 in 30.09 in 29.96 in -
Precipitation: 0.00 in      
Historical Graphs
 
 
Tabular Data for April 18, 2019
Time Temperature Dew Point Pressure Wind Wind Speed Wind Gust Humidity Rainfall Rate (Hourly) solar
00:00 44.5 °F 36.4 °F 29.96 in NE 12.0 mph 12.0 mph 73% 0.00 in 0.00 W/m2
00:15 45.2 °F 36.4 °F 29.98 in NE 3.0 mph 11.0 mph 71% 0.00 in 0.00 W/m2
00:30 44.8 °F 36.7 °F 30.00 in East 2.0 mph 11.0 mph 73% 0.00 in 0.00 W/m2
00:45 43.8 °F 36.7 °F 30.01 in NE 5.0 mph 12.0 mph 76% 0.00 in 0.00 W/m2
01:00 42.5 °F 36.4 °F 30.01 in NE 2.0 mph 14.0 mph 79% 0.00 in 0.00 W/m2
01:15 41.7 °F 36.0 °F 30.01 in NNE 2.0 mph 11.0 mph 80% 0.00 in 0.00 W/m2
01:30 41.5 °F 36.4 °F 30.01 in Calm   6.0 mph 82% 0.00 in 0.00 W/m2
01:45 41.4 °F 36.3 °F 30.01 in Calm   2.0 mph 82% 0.00 in 0.00 W/m2
02:00 41.1 °F 36.3 °F 30.01 in Calm   1.0 mph 83% 0.00 in 0.00 W/m2
02:15 40.9 °F 36.1 °F 30.01 in Calm     83% 0.00 in 0.00 W/m2
02:30 40.8 °F 36.3 °F 30.02 in Calm   3.0 mph 84% 0.00 in 0.00 W/m2
02:45 40.7 °F 36.2 °F 30.02 in Calm   3.0 mph 84% 0.00 in 0.00 W/m2
03:00 40.2 °F 35.8 °F 30.01 in Calm     84% 0.00 in 0.00 W/m2
03:15 39.4 °F 35.0 °F 30.01 in Calm     84% 0.00 in 0.00 W/m2
03:30 39.1 °F 35.3 °F 30.01 in Calm   2.0 mph 86% 0.00 in 0.00 W/m2
03:45 39.0 °F 35.5 °F 30.01 in Calm     87% 0.00 in 0.00 W/m2
04:00 39.3 °F 35.8 °F 30.00 in Calm   2.0 mph 87% 0.00 in 0.00 W/m2
04:15 38.9 °F 35.4 °F 30.00 in Calm     87% 0.00 in 0.00 W/m2
04:30 38.2 °F 34.7 °F 30.00 in Calm     87% 0.00 in 0.00 W/m2
04:45 37.4 °F 33.6 °F 30.00 in Calm   1.0 mph 86% 0.00 in 0.00 W/m2
05:00 36.7 °F 33.2 °F 30.01 in Calm   1.0 mph 87% 0.00 in 0.00 W/m2
05:15 36.2 °F 32.7 °F 30.01 in Calm     87% 0.00 in 0.00 W/m2
05:30 36.0 °F 32.8 °F 30.02 in Calm   3.0 mph 88% 0.00 in 0.00 W/m2
05:45 36.3 °F 33.4 °F 30.02 in Calm     89% 0.00 in 0.00 W/m2
06:00 36.1 °F 33.2 °F 30.03 in Calm   1.0 mph 89% 0.00 in 0.00 W/m2
06:15 36.3 °F 33.4 °F 30.04 in Calm   2.0 mph 89% 0.00 in 0.00 W/m2
06:30 37.2 °F 34.3 °F 30.04 in Calm   3.0 mph 89% 0.00 in 7.00 W/m2
06:45 38.0 °F 35.0 °F 30.04 in Calm   3.0 mph 89% 0.00 in 18.00 W/m2
07:00 38.6 °F 35.1 °F 30.04 in Calm   4.0 mph 87% 0.00 in 47.00 W/m2
07:15 39.3 °F 35.5 °F 30.05 in South 1.0 mph 4.0 mph 86% 0.00 in 44.00 W/m2
07:30 39.8 °F 35.7 °F 30.06 in Calm   5.0 mph 85% 0.00 in 74.00 W/m2
07:45 40.7 °F 35.9 °F 30.07 in SE 2.0 mph 4.0 mph 83% 0.00 in 81.00 W/m2
08:00 41.9 °F 36.5 °F 30.07 in Calm   4.0 mph 81% 0.00 in 105.00 W/m2
08:15 43.2 °F 37.1 °F 30.08 in Calm   3.0 mph 79% 0.00 in 141.00 W/m2
08:30 44.4 °F 36.3 °F 30.09 in NE 3.0 mph 5.0 mph 73% 0.00 in 206.00 W/m2
08:45 45.5 °F 35.2 °F 30.09 in ESE 3.0 mph 10.0 mph 67% 0.00 in 178.00 W/m2
09:00 45.8 °F 35.1 °F 30.09 in ENE 3.0 mph 7.0 mph 66% 0.00 in 151.00 W/m2
SE Aurora, Colorado Weather
Compliments of Weather Underground - 2 mb
top